createdAt,value
2022-07-25T05:30:24.130Z,27.20
2022-07-25T05:32:51.389Z,27.60
2022-07-25T05:35:18.680Z,28.60
2022-07-25T05:37:46.221Z,29.70
2022-07-25T05:40:13.626Z,30.10
2022-07-25T05:42:40.858Z,31.20
2022-07-25T05:45:08.438Z,33.00
2022-07-25T05:47:35.780Z,34.00
2022-07-25T05:50:03.816Z,33.70
2022-07-25T05:52:31.207Z,34.00
2022-07-25T05:54:58.894Z,33.70
2022-07-25T05:57:26.472Z,33.70
2022-07-25T05:59:53.786Z,34.80
2022-07-25T06:02:21.145Z,35.90
2022-07-25T06:04:48.477Z,35.70
2022-07-25T06:07:17.225Z,35.90
2022-07-25T06:09:44.588Z,36.00
2022-07-25T06:12:11.948Z,36.60
2022-07-25T06:14:39.561Z,37.20
2022-07-25T06:17:06.815Z,36.90
2022-07-25T06:19:34.170Z,36.80
2022-07-25T06:22:02.012Z,36.80
2022-07-25T06:24:29.267Z,36.20
2022-07-25T06:26:56.504Z,36.10
2022-07-25T06:29:24.066Z,36.40
2022-07-25T06:31:51.301Z,35.90
2022-07-25T06:34:18.614Z,35.80
2022-07-25T06:36:46.170Z,34.70
2022-07-25T06:39:13.377Z,35.50
2022-07-25T06:41:40.650Z,35.90
2022-07-25T06:44:08.777Z,36.70
2022-07-25T06:46:36.270Z,37.70
2022-07-25T06:49:04.490Z,37.70
2022-07-25T06:51:31.816Z,38.30
2022-07-25T06:53:59.370Z,37.80
2022-07-25T06:56:30.984Z,37.50
2022-07-25T06:58:58.873Z,38.30
2022-07-25T07:01:34.190Z,38.50
2022-07-25T07:04:01.609Z,38.70
2022-07-25T07:06:29.085Z,38.60
2022-07-25T07:08:56.579Z,37.90
2022-07-25T07:11:24.816Z,38.30
2022-07-25T07:13:52.134Z,38.60
2022-07-25T07:16:20.463Z,38.20
2022-07-25T07:18:49.423Z,37.90
2022-07-25T07:21:21.146Z,38.30
2022-07-25T07:23:49.152Z,38.10
2022-07-25T07:26:21.544Z,38.10
2022-07-25T07:28:49.505Z,38.10
2022-07-25T07:31:18.392Z,39.40
2022-07-25T07:33:49.440Z,38.50
2022-07-25T07:36:17.500Z,38.30
2022-07-25T07:38:45.702Z,39.40
2022-07-25T07:41:13.420Z,39.70
2022-07-25T07:43:42.118Z,40.20
2022-07-25T07:46:09.519Z,40.60
2022-07-25T07:48:37.241Z,39.50
2022-07-25T07:51:05.191Z,39.80
2022-07-25T07:53:52.665Z,40.20
2022-07-25T07:56:20.431Z,40.70
2022-07-25T07:58:48.269Z,40.50
2022-07-25T08:01:15.540Z,40.80
2022-07-25T08:03:42.783Z,40.20
2022-07-25T08:06:10.279Z,39.40
2022-07-25T08:08:37.846Z,40.40
2022-07-25T08:11:05.340Z,39.80
2022-07-25T08:13:36.061Z,39.40
2022-07-25T08:16:04.364Z,39.50
2022-07-25T08:18:33.034Z,39.70
2022-07-25T08:21:06.444Z,40.60
2022-07-25T08:23:35.818Z,39.90
2022-07-25T08:26:04.069Z,40.10
2022-07-25T08:28:32.236Z,39.30
2022-07-25T08:30:59.636Z,40.10
2022-07-25T08:33:27.198Z,40.40
2022-07-25T08:35:55.895Z,40.50
2022-07-25T08:38:25.016Z,40.20
2022-07-25T08:40:54.731Z,40.20
2022-07-25T08:43:22.199Z,40.30
2022-07-25T08:45:52.205Z,40.80
2022-07-25T08:48:23.759Z,40.80
2022-07-25T08:50:52.032Z,40.80
2022-07-25T08:53:36.291Z,40.80
2022-07-25T08:56:11.579Z,40.70
2022-07-25T08:58:41.554Z,40.90
2022-07-25T09:01:09.477Z,41.10
2022-07-25T09:03:36.902Z,41.40
2022-07-25T09:06:16.564Z,41.10
2022-07-25T09:09:00.671Z,40.70
2022-07-25T09:14:09.246Z,40.00
2022-07-25T09:16:40.202Z,40.70
2022-07-25T09:19:11.388Z,41.30
2022-07-25T09:21:39.905Z,41.40
2022-07-25T09:24:16.111Z,41.30
2022-07-25T09:26:51.105Z,41.00
2022-07-25T09:29:22.120Z,41.50
2022-07-25T09:31:49.828Z,41.10
2022-07-25T09:34:38.180Z,39.90
2022-07-25T09:37:08.120Z,39.70
2022-07-25T09:42:24.797Z,39.20
2022-07-25T09:45:12.698Z,40.00
2022-07-25T09:48:01.452Z,40.80
2022-07-25T09:50:31.730Z,41.20
2022-07-25T09:53:02.626Z,41.60
2022-07-25T09:55:30.980Z,41.40
2022-07-25T09:57:58.689Z,40.20
2022-07-25T10:00:31.408Z,40.30
2022-07-25T10:03:26.111Z,40.60
2022-07-25T10:06:20.872Z,41.10
2022-07-25T10:08:51.000Z,40.70
2022-07-25T10:11:24.235Z,40.70
2022-07-25T10:13:54.326Z,40.50
2022-07-25T10:16:24.388Z,40.70
2022-07-25T10:18:54.570Z,40.60
2022-07-25T10:21:26.710Z,41.30
2022-07-25T10:24:07.470Z,41.50
2022-07-25T10:26:50.955Z,41.10
2022-07-25T10:29:18.667Z,41.10
2022-07-25T10:31:51.207Z,40.80
2022-07-25T10:34:32.173Z,40.90
2022-07-25T10:37:13.650Z,41.50
2022-07-25T10:39:44.912Z,40.80
2022-07-25T10:42:15.089Z,40.10
2022-07-25T10:44:52.134Z,40.90
2022-07-25T10:47:24.848Z,40.60
2022-07-25T10:50:25.609Z,41.00
2022-07-25T10:52:57.710Z,40.30
2022-07-25T10:55:26.092Z,40.50
2022-07-25T10:58:17.736Z,41.30
2022-07-25T11:00:45.623Z,41.10
2022-07-25T11:03:17.830Z,41.00
2022-07-25T11:05:47.704Z,41.30
2022-07-25T11:08:21.957Z,40.90
2022-07-25T11:10:52.455Z,40.80
2022-07-25T11:13:19.739Z,40.10
2022-07-25T11:15:47.129Z,39.00
2022-07-25T11:18:14.591Z,38.30
2022-07-25T11:20:41.947Z,37.90
2022-07-25T11:23:09.197Z,37.30
2022-07-25T11:25:36.406Z,37.20
2022-07-25T11:28:04.059Z,37.00
2022-07-25T11:30:32.453Z,37.00
2022-07-25T11:33:01.645Z,37.90
2022-07-25T11:35:31.375Z,38.30
2022-07-25T11:38:02.482Z,38.40
2022-07-25T11:40:32.602Z,37.90
2022-07-25T11:43:00.398Z,37.60
2022-07-25T11:45:30.496Z,37.50
2022-07-25T11:48:09.644Z,37.70
2022-07-25T11:50:39.362Z,37.80
2022-07-25T11:53:09.054Z,37.50
2022-07-25T11:55:42.832Z,37.60
2022-07-25T11:58:13.573Z,37.80
2022-07-25T12:00:47.589Z,38.00
2022-07-25T12:03:20.247Z,37.80
2022-07-25T12:05:49.376Z,37.10
2022-07-25T12:08:19.262Z,36.60
2022-07-25T12:10:48.433Z,36.40
2022-07-25T12:13:25.701Z,36.20
2022-07-25T12:15:53.965Z,36.10
2022-07-25T12:18:21.318Z,36.00
2022-07-25T12:20:48.544Z,36.00
2022-07-25T12:23:16.046Z,36.40
2022-07-25T12:25:45.496Z,36.50
2022-07-25T12:28:13.967Z,36.70
2022-07-25T12:30:44.429Z,36.70
2022-07-25T12:33:12.965Z,36.70
2022-07-25T12:35:41.577Z,37.00
2022-07-25T12:38:09.270Z,37.10
2022-07-25T12:40:36.926Z,37.20
2022-07-25T12:43:05.056Z,37.00
2022-07-25T12:45:32.477Z,36.70
2022-07-25T12:47:59.797Z,36.70
2022-07-25T12:50:27.099Z,36.80
2022-07-25T12:52:54.727Z,36.60
2022-07-25T12:55:22.726Z,36.50
2022-07-25T12:57:50.392Z,36.60
2022-07-25T13:00:20.444Z,36.60
2022-07-25T13:02:49.573Z,36.80
2022-07-25T13:05:17.725Z,36.70
2022-07-25T13:07:45.243Z,36.70
2022-07-25T13:10:12.745Z,36.60
2022-07-25T13:12:39.979Z,36.30
2022-07-25T13:15:07.992Z,36.20
2022-07-25T13:17:35.509Z,36.30
2022-07-25T13:20:03.710Z,36.60
2022-07-25T13:22:34.052Z,36.90
2022-07-25T13:25:01.352Z,36.80
2022-07-25T13:27:28.622Z,36.90
2022-07-25T13:29:56.186Z,36.50
2022-07-25T13:32:23.976Z,36.10
2022-07-25T13:34:51.510Z,35.80
2022-07-25T13:37:18.715Z,35.70
2022-07-25T13:39:45.979Z,35.50
2022-07-25T13:42:13.389Z,35.10
2022-07-25T13:44:40.645Z,34.90
2022-07-25T13:47:07.827Z,34.60
2022-07-25T13:49:36.852Z,34.80
2022-07-25T13:52:04.643Z,34.90
2022-07-25T13:54:32.169Z,35.00
2022-07-25T13:56:59.651Z,35.10
2022-07-25T13:59:26.941Z,35.50
2022-07-25T14:01:54.390Z,35.60
2022-07-25T14:04:22.834Z,35.80
2022-07-25T14:06:52.221Z,35.90
2022-07-25T14:09:21.092Z,36.00
2022-07-25T14:11:49.406Z,36.10
2022-07-25T14:14:17.454Z,35.30
2022-07-25T14:16:45.642Z,36.40
2022-07-25T14:19:13.126Z,36.50
2022-07-25T14:21:40.558Z,36.50
2022-07-25T14:24:08.270Z,36.30
2022-07-25T14:26:35.663Z,35.90
2022-07-25T14:29:03.995Z,35.80
2022-07-25T14:31:32.909Z,35.90
2022-07-25T14:34:00.522Z,36.00
2022-07-25T14:36:27.918Z,35.90
2022-07-25T14:38:55.380Z,35.70
2022-07-25T14:41:22.686Z,35.80
2022-07-25T14:43:49.941Z,34.90
2022-07-25T14:46:17.208Z,34.10
2022-07-25T14:48:45.525Z,32.80
2022-07-25T14:53:40.559Z,31.60
2022-07-25T14:56:08.428Z,31.40
2022-07-25T14:58:36.168Z,31.30
2022-07-25T15:01:03.734Z,31.40
2022-07-25T15:03:31.227Z,31.60
2022-07-25T15:05:58.496Z,31.70
2022-07-25T15:08:25.903Z,32.30
2022-07-25T15:10:53.113Z,32.40
2022-07-25T15:13:31.158Z,32.70
2022-07-25T15:15:59.773Z,33.40
2022-07-25T15:18:27.414Z,33.20
2022-07-25T15:20:55.319Z,33.30
2022-07-25T15:23:24.907Z,33.40
2022-07-25T15:26:08.677Z,33.20
2022-07-25T15:28:38.495Z,33.10
2022-07-25T15:31:06.556Z,32.80
2022-07-25T15:33:34.286Z,33.00
2022-07-25T15:36:01.545Z,33.00
2022-07-25T15:40:57.498Z,33.40
2022-07-25T15:43:25.992Z,32.80
2022-07-25T15:45:53.388Z,33.10
2022-07-25T15:48:20.669Z,33.20
2022-07-25T15:50:54.428Z,33.30
2022-07-25T15:53:22.211Z,33.60
2022-07-25T15:58:17.209Z,32.50
